Saugatuck, Connecticut
Current Conditions -  °F | °C
As of 11:52 PM on Thursday 27 Nov 2014 (Local Time) from KBDR Reporting Station
Overcast Overcast  
Wind Chill: -3°   Ceiling: 5000
Heat Index:   Visibility: 10mi
Dew Point: -3°   Wind: 8mph
Humidity: 73%   Direction: 320°NW
Pressure: 30.04"   Gusts: NA
Location:  41.1454°N, 73.3462°W
Report Text: KBDR 280452Z AUTO 32007KT 10SM OVC050 01/M03 A3004 RMK AO2 SLP172 T00111033 400390011
Loading
Personal Weather Stations






























Interactive Weather Map New forecast layout! Learn more

10-Day Weather Forecast

Advertisements
Track Severe Weather on mobile